createdAt,value
2018-10-06T00:00:12.425Z,16.97
2018-10-06T00:02:39.844Z,13.40
2018-10-06T00:05:07.280Z,12.00
2018-10-06T00:07:34.693Z,12.80
2018-10-06T00:10:02.122Z,15.70
2018-10-06T00:12:29.505Z,15.03
2018-10-06T00:14:57.197Z,24.43
2018-10-06T00:17:24.601Z,14.90
2018-10-06T00:19:51.961Z,13.50
2018-10-06T00:22:19.332Z,15.00
2018-10-06T00:24:46.726Z,11.87
2018-10-06T00:27:14.093Z,10.27
2018-10-06T00:29:41.449Z,9.87
2018-10-06T00:32:08.839Z,15.17
2018-10-06T00:34:36.451Z,12.57
2018-10-06T00:37:03.798Z,11.53
2018-10-06T00:39:31.197Z,11.70
2018-10-06T00:41:58.568Z,11.20
2018-10-06T00:44:26.163Z,12.03
2018-10-06T00:46:53.646Z,8.43
2018-10-06T00:49:21.053Z,12.43
2018-10-06T00:51:48.569Z,9.13
2018-10-06T00:54:16.490Z,15.00
2018-10-06T00:56:43.904Z,7.33
2018-10-06T00:59:11.273Z,12.00
2018-10-06T01:01:38.705Z,13.13
2018-10-06T01:04:06.076Z,9.80
2018-10-06T01:06:33.456Z,9.17
2018-10-06T01:09:00.842Z,9.93
2018-10-06T01:11:28.268Z,12.47
2018-10-06T01:13:55.864Z,13.07
2018-10-06T01:16:23.280Z,12.57
2018-10-06T01:18:50.677Z,9.67
2018-10-06T01:21:18.205Z,8.47
2018-10-06T01:23:45.770Z,8.63
2018-10-06T01:26:13.157Z,10.60
2018-10-06T01:28:40.592Z,12.53
2018-10-06T01:31:08.032Z,10.93
2018-10-06T01:33:35.389Z,8.93
2018-10-06T01:36:02.764Z,14.07
2018-10-06T01:38:30.252Z,10.07
2018-10-06T01:40:57.609Z,8.33
2018-10-06T01:43:25.000Z,4.80
2018-10-06T01:45:52.626Z,13.27
2018-10-06T01:48:20.013Z,8.23
2018-10-06T01:50:47.618Z,11.10
2018-10-06T01:53:15.025Z,14.43
2018-10-06T01:55:42.397Z,13.57
2018-10-06T01:58:09.773Z,10.07
2018-10-06T02:00:37.320Z,15.40
2018-10-06T02:03:04.694Z,5.33
2018-10-06T02:05:32.116Z,8.40
2018-10-06T02:07:59.526Z,12.90
2018-10-06T02:10:27.034Z,6.10
2018-10-06T02:12:54.424Z,11.73
2018-10-06T02:15:21.829Z,9.33
2018-10-06T02:17:49.194Z,8.80
2018-10-06T02:20:16.569Z,7.93
2018-10-06T02:22:43.960Z,9.90
2018-10-06T02:25:11.341Z,9.27
2018-10-06T02:27:38.733Z,6.03
2018-10-06T02:30:06.210Z,13.93
2018-10-06T02:32:33.636Z,8.07
2018-10-06T02:35:01.071Z,12.50
2018-10-06T02:37:28.908Z,10.00
2018-10-06T02:39:56.305Z,12.17
2018-10-06T02:42:23.790Z,9.80
2018-10-06T02:44:51.190Z,7.10
2018-10-06T02:47:18.709Z,13.53
2018-10-06T02:49:46.069Z,10.67
2018-10-06T02:52:13.508Z,10.60
2018-10-06T02:54:40.867Z,7.67
2018-10-06T02:57:08.508Z,9.70
2018-10-06T02:59:35.914Z,9.90
2018-10-06T03:02:03.401Z,9.17
2018-10-06T03:04:30.775Z,10.90
2018-10-06T03:06:58.173Z,14.53
2018-10-06T03:09:25.524Z,8.43
2018-10-06T03:11:52.878Z,8.23
2018-10-06T03:14:20.297Z,10.10
2018-10-06T03:16:47.693Z,17.00
2018-10-06T03:19:15.058Z,9.80
2018-10-06T03:21:42.585Z,9.30
2018-10-06T03:24:10.113Z,13.00
2018-10-06T03:26:37.585Z,10.17
2018-10-06T03:29:05.109Z,10.20
2018-10-06T03:31:32.493Z,13.07
2018-10-06T03:33:59.861Z,12.60
2018-10-06T03:36:27.253Z,10.83
2018-10-06T03:38:54.781Z,13.63
2018-10-06T03:41:22.136Z,13.73
2018-10-06T03:43:49.562Z,14.53
2018-10-06T03:46:16.930Z,16.60
2018-10-06T03:48:44.314Z,18.77
2018-10-06T03:51:11.752Z,10.30
2018-10-06T03:53:39.113Z,9.10
2018-10-06T03:56:06.548Z,8.87
2018-10-06T03:58:34.000Z,13.37
2018-10-06T04:01:01.370Z,13.57
2018-10-06T04:03:28.769Z,9.67
2018-10-06T04:05:56.197Z,12.17
2018-10-06T04:08:23.573Z,15.73
2018-10-06T04:10:50.993Z,11.43
2018-10-06T04:13:18.401Z,12.33
2018-10-06T04:15:45.772Z,11.70
2018-10-06T04:18:13.340Z,10.60
2018-10-06T04:20:40.717Z,15.53
2018-10-06T04:23:08.085Z,14.50
2018-10-06T04:25:35.451Z,11.27
2018-10-06T04:28:02.825Z,15.80
2018-10-06T04:30:30.189Z,19.43
2018-10-06T04:32:57.570Z,12.47
2018-10-06T04:35:24.940Z,15.53
2018-10-06T04:37:52.493Z,14.53
2018-10-06T04:40:19.837Z,11.93
2018-10-06T04:42:47.308Z,12.53
2018-10-06T04:45:14.681Z,9.07
2018-10-06T04:47:42.059Z,12.43
2018-10-06T04:50:09.481Z,11.83
2018-10-06T04:52:36.851Z,9.63
2018-10-06T04:55:04.247Z,13.30
2018-10-06T04:57:31.645Z,11.37
2018-10-06T04:59:59.016Z,14.53
2018-10-06T05:02:26.890Z,16.97
2018-10-06T05:04:54.267Z,9.27
2018-10-06T05:07:21.638Z,8.87
2018-10-06T05:09:49.036Z,13.70
2018-10-06T05:12:16.481Z,12.87
2018-10-06T05:14:43.855Z,12.03
2018-10-06T05:17:11.254Z,13.20
2018-10-06T05:19:38.656Z,11.47
2018-10-06T05:22:06.054Z,10.07
2018-10-06T05:24:33.455Z,9.40
2018-10-06T05:27:00.996Z,13.80
2018-10-06T05:29:28.378Z,11.37
2018-10-06T05:31:55.742Z,15.57
2018-10-06T05:34:23.137Z,11.23
2018-10-06T05:36:50.558Z,14.70
2018-10-06T05:39:17.953Z,11.93
2018-10-06T05:41:45.448Z,17.37
2018-10-06T05:44:12.818Z,10.30
2018-10-06T05:46:40.173Z,11.97
2018-10-06T05:49:07.589Z,13.10
2018-10-06T05:51:34.967Z,15.57
2018-10-06T05:54:02.318Z,12.23
2018-10-06T05:56:29.695Z,12.83
2018-10-06T05:58:57.113Z,14.87
2018-10-06T06:01:24.521Z,12.90
2018-10-06T06:03:52.177Z,12.70
2018-10-06T06:06:19.601Z,13.37
2018-10-06T06:08:46.969Z,13.30
2018-10-06T06:11:14.356Z,8.73
2018-10-06T06:13:41.725Z,11.40
2018-10-06T06:16:09.113Z,13.10
2018-10-06T06:18:36.503Z,9.80
2018-10-06T06:21:03.999Z,10.17
2018-10-06T06:23:31.357Z,10.97
2018-10-06T06:25:58.881Z,14.27
2018-10-06T06:28:26.281Z,14.93
2018-10-06T06:30:53.720Z,13.33
2018-10-06T06:33:21.173Z,14.83
2018-10-06T06:35:48.533Z,11.57
2018-10-06T06:38:15.960Z,13.80
2018-10-06T06:40:43.317Z,9.93
2018-10-06T06:43:10.673Z,11.50
2018-10-06T06:45:38.081Z,13.43
2018-10-06T06:48:05.585Z,11.80
2018-10-06T06:50:32.952Z,12.03
2018-10-06T06:53:00.459Z,11.23
2018-10-06T06:55:27.977Z,10.00
2018-10-06T06:57:55.337Z,12.90
2018-10-06T07:00:22.728Z,13.50
2018-10-06T07:02:50.149Z,9.97
2018-10-06T07:05:21.839Z,13.17
2018-10-06T07:07:49.228Z,7.80
2018-10-06T07:10:16.777Z,9.07
2018-10-06T07:12:44.349Z,12.90
2018-10-06T07:15:11.704Z,13.50
2018-10-06T07:17:39.146Z,13.20
2018-10-06T07:20:06.625Z,9.60
2018-10-06T07:22:34.092Z,10.57
2018-10-06T07:25:01.912Z,8.43
2018-10-06T07:27:29.277Z,10.73
2018-10-06T07:29:56.765Z,10.80
2018-10-06T07:32:24.196Z,11.53
2018-10-06T07:34:51.738Z,11.70
2018-10-06T07:37:19.236Z,12.73
2018-10-06T07:39:46.757Z,11.83
2018-10-06T07:42:14.098Z,12.97
2018-10-06T07:44:41.492Z,18.63
2018-10-06T07:47:09.253Z,11.57
2018-10-06T07:49:37.510Z,8.80
2018-10-06T07:52:04.864Z,10.73
2018-10-06T07:54:32.259Z,15.10
2018-10-06T07:56:59.624Z,8.90
2018-10-06T07:59:27.168Z,14.37
2018-10-06T08:01:54.489Z,12.80
2018-10-06T08:04:21.833Z,9.87
2018-10-06T08:06:49.241Z,9.63
2018-10-06T08:09:16.608Z,12.97
2018-10-06T08:11:44.185Z,14.37
2018-10-06T08:14:11.551Z,12.93
2018-10-06T08:16:38.945Z,9.50
2018-10-06T08:19:06.553Z,10.53
2018-10-06T08:21:33.922Z,13.20
2018-10-06T08:24:01.444Z,10.40
2018-10-06T08:26:28.838Z,11.07
2018-10-06T08:28:56.281Z,9.90
2018-10-06T08:31:23.964Z,11.90
2018-10-06T08:33:51.317Z,11.33
2018-10-06T08:36:18.681Z,14.33
2018-10-06T08:38:46.249Z,13.07
2018-10-06T08:41:13.600Z,11.17
2018-10-06T08:43:40.969Z,15.10
2018-10-06T08:46:08.452Z,12.70
2018-10-06T08:48:35.837Z,9.70
2018-10-06T08:51:03.227Z,9.57
2018-10-06T08:53:30.598Z,9.40
2018-10-06T08:55:58.074Z,11.00
2018-10-06T08:58:25.456Z,11.03
2018-10-06T09:00:53.145Z,9.33
2018-10-06T09:03:20.502Z,11.53
2018-10-06T09:05:47.861Z,10.13
2018-10-06T09:08:15.264Z,12.17
2018-10-06T09:10:42.708Z,7.77
2018-10-06T09:13:10.119Z,9.03
2018-10-06T09:15:37.505Z,11.27
2018-10-06T09:18:04.885Z,13.93
2018-10-06T09:20:32.261Z,8.00
2018-10-06T09:22:59.637Z,11.13
2018-10-06T09:25:26.992Z,11.10
2018-10-06T09:27:54.356Z,11.90
2018-10-06T09:30:22.627Z,12.93
2018-10-06T09:32:50.070Z,12.40
2018-10-06T09:35:17.437Z,9.10
2018-10-06T09:37:44.806Z,9.90
2018-10-06T09:40:12.176Z,12.13
2018-10-06T09:42:39.638Z,12.73
2018-10-06T09:45:07.061Z,13.13
2018-10-06T09:47:34.533Z,11.30
2018-10-06T09:50:01.894Z,11.77
2018-10-06T09:52:29.422Z,13.43
2018-10-06T09:54:56.793Z,10.60
2018-10-06T09:57:24.357Z,9.30
2018-10-06T09:59:51.781Z,9.77
2018-10-06T10:02:24.720Z,8.57
2018-10-06T10:04:52.264Z,8.50
2018-10-06T10:07:19.633Z,9.67
2018-10-06T10:09:47.007Z,8.67
2018-10-06T10:12:14.514Z,10.23
2018-10-06T10:14:41.941Z,9.30
2018-10-06T10:17:09.459Z,30.93
2018-10-06T10:19:36.821Z,12.70
2018-10-06T10:22:04.251Z,9.03
2018-10-06T10:24:31.593Z,10.10
2018-10-06T10:26:58.978Z,10.20
2018-10-06T10:29:26.390Z,6.73
2018-10-06T10:31:53.756Z,15.20
2018-10-06T10:34:21.274Z,11.23
2018-10-06T10:36:48.640Z,8.27
2018-10-06T10:39:16.081Z,12.90
2018-10-06T10:41:43.391Z,12.47
2018-10-06T10:44:10.845Z,12.20
2018-10-06T10:46:38.260Z,11.57
2018-10-06T10:49:05.651Z,16.10
2018-10-06T10:51:33.006Z,12.47
2018-10-06T10:54:00.373Z,11.47
2018-10-06T10:56:28.113Z,10.37
2018-10-06T10:58:55.487Z,11.13
2018-10-06T11:01:22.971Z,7.83
2018-10-06T11:03:50.470Z,9.43
2018-10-06T11:06:17.932Z,11.13
2018-10-06T11:08:45.293Z,13.63
2018-10-06T11:11:12.696Z,8.63
2018-10-06T11:13:40.052Z,10.60
2018-10-06T11:16:07.451Z,11.00
2018-10-06T11:18:34.873Z,12.97
2018-10-06T11:21:02.273Z,17.00
2018-10-06T11:23:29.632Z,10.23
2018-10-06T11:25:57.028Z,13.87
2018-10-06T11:28:24.364Z,9.47
2018-10-06T11:30:51.709Z,7.97
2018-10-06T11:33:19.381Z,11.33
2018-10-06T11:35:46.850Z,6.97
2018-10-06T11:38:14.246Z,10.67
2018-10-06T11:40:41.762Z,11.70
2018-10-06T11:43:09.109Z,10.47
2018-10-06T11:45:36.709Z,9.77
2018-10-06T11:48:04.134Z,11.33
2018-10-06T11:50:31.521Z,12.63
2018-10-06T11:52:58.893Z,12.13
2018-10-06T11:55:26.286Z,7.93
2018-10-06T11:57:53.641Z,12.13
2018-10-06T12:00:21.366Z,10.28
2018-10-06T12:02:48.692Z,10.43
2018-10-06T12:05:16.059Z,10.03
2018-10-06T12:07:43.418Z,9.43
2018-10-06T12:10:10.810Z,10.70
2018-10-06T12:12:38.153Z,9.43
2018-10-06T12:15:05.572Z,12.43
2018-10-06T12:17:32.964Z,17.87
2018-10-06T12:20:00.629Z,11.70
2018-10-06T12:22:27.989Z,10.93
2018-10-06T12:24:55.485Z,9.60
2018-10-06T12:27:23.037Z,9.07
2018-10-06T12:29:50.420Z,11.75
2018-10-06T12:32:17.828Z,15.80
2018-10-06T12:34:45.380Z,14.38
2018-10-06T12:37:12.710Z,12.68
2018-10-06T12:39:40.109Z,15.60
2018-10-06T12:42:07.557Z,16.07
2018-10-06T12:44:34.881Z,17.42
2018-10-06T12:47:02.485Z,8.78
2018-10-06T12:49:29.844Z,12.73
2018-10-06T12:51:57.192Z,8.28
2018-10-06T12:54:24.711Z,15.72
2018-10-06T12:56:52.057Z,9.98
2018-10-06T12:59:19.740Z,9.60
2018-10-06T13:01:47.131Z,12.78
2018-10-06T13:04:14.614Z,9.30
2018-10-06T13:06:42.085Z,11.48
2018-10-06T13:09:10.726Z,14.78
2018-10-06T13:11:38.192Z,9.58
2018-10-06T13:14:05.540Z,8.63
2018-10-06T13:16:33.038Z,12.13
2018-10-06T13:19:00.601Z,15.53
2018-10-06T13:21:27.984Z,15.75
2018-10-06T13:23:55.376Z,12.30
2018-10-06T13:26:22.741Z,9.85
2018-10-06T13:28:50.128Z,10.70
2018-10-06T13:31:17.496Z,12.00
2018-10-06T13:33:44.853Z,8.58
2018-10-06T13:36:12.317Z,7.65
2018-10-06T13:38:39.696Z,7.95
2018-10-06T13:41:07.277Z,8.80
2018-10-06T13:43:34.654Z,8.28
2018-10-06T13:46:02.037Z,17.45
2018-10-06T13:48:29.394Z,9.43
2018-10-06T13:50:56.841Z,9.23
2018-10-06T13:53:24.281Z,10.75
2018-10-06T13:55:51.798Z,9.20
2018-10-06T13:58:19.169Z,8.53
2018-10-06T14:00:46.664Z,8.98
2018-10-06T14:03:14.024Z,7.67
2018-10-06T14:05:41.408Z,12.50
2018-10-06T14:08:08.853Z,11.95
2018-10-06T14:10:36.200Z,8.33
2018-10-06T14:13:03.601Z,9.48
2018-10-06T14:15:30.975Z,8.25
2018-10-06T14:17:58.432Z,8.33
2018-10-06T14:20:25.787Z,7.72
2018-10-06T14:22:53.496Z,10.03
2018-10-06T14:25:21.132Z,10.28
2018-10-06T14:27:48.558Z,15.45
2018-10-06T14:30:15.944Z,15.60
2018-10-06T14:32:43.467Z,16.65
2018-10-06T14:35:10.840Z,14.50
2018-10-06T14:37:38.332Z,10.98
2018-10-06T14:40:06.073Z,18.90
2018-10-06T14:42:33.428Z,14.83
2018-10-06T14:45:00.925Z,10.88
2018-10-06T14:47:28.324Z,14.10
2018-10-06T14:49:55.812Z,12.60
2018-10-06T14:52:23.217Z,11.60
2018-10-06T14:54:50.617Z,17.17
2018-10-06T14:57:18.010Z,15.90
2018-10-06T14:59:45.521Z,18.57
2018-10-06T15:02:13.065Z,14.27
2018-10-06T15:04:40.418Z,20.23
2018-10-06T15:07:07.802Z,16.20
2018-10-06T15:09:35.168Z,14.27
2018-10-06T15:12:02.521Z,12.50
2018-10-06T15:14:30.252Z,18.40
2018-10-06T15:16:57.681Z,16.00
2018-10-06T15:19:25.034Z,17.23
2018-10-06T15:21:52.650Z,19.07
2018-10-06T15:24:20.189Z,13.23
2018-10-06T15:26:47.629Z,12.83
2018-10-06T15:29:15.087Z,14.17
2018-10-06T15:31:42.441Z,15.10
2018-10-06T15:34:09.795Z,16.93
2018-10-06T15:36:37.245Z,11.63
2018-10-06T15:39:06.246Z,17.77
2018-10-06T15:41:33.709Z,20.40
2018-10-06T15:44:01.102Z,14.37
2018-10-06T15:46:28.456Z,18.97
2018-10-06T15:48:55.817Z,17.10
2018-10-06T15:51:23.235Z,15.50
2018-10-06T15:53:50.640Z,20.47
2018-10-06T15:56:18.010Z,20.73
2018-10-06T15:58:45.598Z,19.83
2018-10-06T16:01:12.961Z,20.33
2018-10-06T16:03:40.489Z,19.37
2018-10-06T16:06:07.965Z,16.17
2018-10-06T16:08:35.342Z,13.50
2018-10-06T16:11:02.859Z,17.47
2018-10-06T16:13:30.237Z,21.60
2018-10-06T16:15:57.603Z,17.13
2018-10-06T16:18:25.024Z,13.53
2018-10-06T16:20:52.491Z,15.73
2018-10-06T16:23:19.869Z,12.17
2018-10-06T16:25:47.241Z,14.83
2018-10-06T16:28:14.671Z,13.73
2018-10-06T16:30:42.050Z,15.20
2018-10-06T16:33:09.512Z,16.53
2018-10-06T16:35:36.927Z,17.60
2018-10-06T16:38:04.348Z,16.63
2018-10-06T16:40:31.952Z,17.77
2018-10-06T16:42:59.341Z,15.70
2018-10-06T16:45:26.712Z,18.50
2018-10-06T16:47:54.068Z,19.13
2018-10-06T16:50:21.602Z,24.50
2018-10-06T16:52:48.985Z,25.23
2018-10-06T16:55:16.350Z,28.97
2018-10-06T16:57:43.756Z,37.03
2018-10-06T17:00:11.147Z,30.17
2018-10-06T17:02:38.502Z,31.30
2018-10-06T17:05:06.064Z,32.07
2018-10-06T17:07:33.459Z,22.70
2018-10-06T17:10:00.812Z,25.10
2018-10-06T17:12:28.236Z,20.53
2018-10-06T17:14:55.691Z,23.23
2018-10-06T17:17:23.078Z,22.70
2018-10-06T17:19:50.648Z,19.43
2018-10-06T17:22:18.005Z,23.53
2018-10-06T17:24:45.369Z,22.17
2018-10-06T17:27:12.822Z,23.50
2018-10-06T17:29:40.264Z,27.37
2018-10-06T17:32:07.717Z,24.57
2018-10-06T17:34:35.213Z,30.23
2018-10-06T17:37:02.678Z,28.00
2018-10-06T17:39:30.042Z,26.40
2018-10-06T17:41:57.606Z,24.10
2018-10-06T17:44:25.331Z,24.30
2018-10-06T17:46:52.601Z,34.27
2018-10-06T17:49:19.976Z,29.83
2018-10-06T17:51:47.344Z,30.47
2018-10-06T17:54:14.697Z,30.37
2018-10-06T17:56:42.073Z,23.93
2018-10-06T17:59:09.434Z,21.07
2018-10-06T18:01:36.792Z,25.70
2018-10-06T18:04:04.175Z,23.23
2018-10-06T18:06:31.656Z,24.40
2018-10-06T18:08:58.992Z,22.67
2018-10-06T18:11:26.424Z,21.03
2018-10-06T18:13:53.873Z,29.80
2018-10-06T18:16:21.225Z,34.47
2018-10-06T18:18:48.752Z,39.50
2018-10-06T18:21:16.251Z,34.20
2018-10-06T18:23:43.513Z,26.37
2018-10-06T18:26:10.917Z,27.13
2018-10-06T18:28:38.288Z,27.67
2018-10-06T18:31:05.654Z,27.73
2018-10-06T18:33:33.068Z,30.63
2018-10-06T18:36:00.912Z,26.37
2018-10-06T18:38:28.293Z,24.33
2018-10-06T18:40:55.790Z,25.93
2018-10-06T18:43:23.231Z,24.97
2018-10-06T18:45:50.537Z,24.03
2018-10-06T18:48:17.921Z,25.97
2018-10-06T18:50:45.314Z,22.57
2018-10-06T18:53:12.684Z,30.60
2018-10-06T18:55:40.108Z,25.20
2018-10-06T18:58:07.511Z,22.20
2018-10-06T19:00:34.992Z,25.23
2018-10-06T19:03:02.786Z,27.23
2018-10-06T19:05:30.134Z,28.40
2018-10-06T19:07:57.493Z,22.10
2018-10-06T19:10:24.939Z,27.67
2018-10-06T19:12:52.391Z,23.50
2018-10-06T19:15:19.758Z,26.70
2018-10-06T19:17:47.154Z,28.77
2018-10-06T19:20:14.533Z,30.03
2018-10-06T19:22:41.914Z,34.47
2018-10-06T19:25:09.401Z,31.63
2018-10-06T19:27:36.761Z,29.90
2018-10-06T19:30:04.193Z,30.37
2018-10-06T19:32:31.597Z,38.90
2018-10-06T19:34:58.969Z,32.67
2018-10-06T19:37:26.350Z,36.00
2018-10-06T19:39:53.726Z,36.13
2018-10-06T19:42:21.395Z,37.53
2018-10-06T19:44:48.785Z,31.03
2018-10-06T19:47:16.212Z,33.00
2018-10-06T19:49:43.597Z,34.87
2018-10-06T19:52:11.002Z,34.90
2018-10-06T19:54:38.420Z,27.50
2018-10-06T19:57:05.806Z,34.40
2018-10-06T19:59:33.284Z,29.53
2018-10-06T20:02:00.820Z,37.97
2018-10-06T20:04:28.180Z,41.50
2018-10-06T20:06:55.554Z,36.43
2018-10-06T20:09:22.968Z,43.37
2018-10-06T20:11:50.336Z,31.23
2018-10-06T20:14:17.693Z,29.97
2018-10-06T20:16:45.162Z,29.13
2018-10-06T20:19:12.655Z,27.90
2018-10-06T20:21:40.089Z,36.57
2018-10-06T20:24:07.528Z,32.33
2018-10-06T20:26:34.896Z,29.97
2018-10-06T20:29:02.346Z,31.90
2018-10-06T20:31:29.749Z,32.00
2018-10-06T20:33:57.132Z,28.87
2018-10-06T20:36:24.509Z,29.87
2018-10-06T20:38:51.909Z,27.67
2018-10-06T20:41:19.380Z,27.10
2018-10-06T20:43:46.768Z,29.90
2018-10-06T20:46:14.206Z,29.63
2018-10-06T20:48:41.570Z,32.23
2018-10-06T20:51:09.055Z,28.97
2018-10-06T20:53:36.445Z,31.40
2018-10-06T20:56:03.849Z,30.80
2018-10-06T20:58:31.209Z,30.10
2018-10-06T21:00:58.605Z,23.50
2018-10-06T21:03:26.069Z,26.20
2018-10-06T21:05:53.424Z,28.13
2018-10-06T21:08:20.812Z,27.50
2018-10-06T21:10:48.244Z,31.37
2018-10-06T21:13:15.569Z,27.40
2018-10-06T21:15:43.065Z,26.70
2018-10-06T21:18:10.488Z,25.23
2018-10-06T21:20:37.964Z,23.03
2018-10-06T21:23:05.361Z,22.47
2018-10-06T21:25:32.726Z,19.97
2018-10-06T21:28:00.093Z,22.17
2018-10-06T21:30:27.506Z,29.17
2018-10-06T21:32:54.870Z,26.33
2018-10-06T21:35:22.233Z,26.93
2018-10-06T21:37:49.645Z,23.80
2018-10-06T21:40:17.009Z,24.13
2018-10-06T21:42:44.389Z,21.07
2018-10-06T21:45:11.861Z,22.80
2018-10-06T21:47:39.300Z,25.23
2018-10-06T21:50:06.777Z,23.63
2018-10-06T21:52:34.185Z,24.87
2018-10-06T21:55:01.597Z,24.03
2018-10-06T21:57:28.989Z,23.57
2018-10-06T21:59:56.380Z,25.00
2018-10-06T22:02:23.725Z,23.20
2018-10-06T22:04:51.101Z,23.80
2018-10-06T22:07:18.506Z,22.83
2018-10-06T22:09:45.919Z,21.83
2018-10-06T22:12:13.333Z,22.33
2018-10-06T22:14:40.766Z,19.60
2018-10-06T22:17:08.425Z,20.13
2018-10-06T22:19:35.768Z,22.37
2018-10-06T22:22:03.171Z,20.13
2018-10-06T22:24:30.557Z,21.90
2018-10-06T22:26:57.908Z,24.03
2018-10-06T22:29:25.328Z,28.30
2018-10-06T22:31:52.716Z,23.00
2018-10-06T22:34:20.089Z,22.97
2018-10-06T22:36:47.480Z,22.60
2018-10-06T22:39:14.846Z,23.73
2018-10-06T22:41:42.216Z,18.73
2018-10-06T22:44:09.605Z,20.27
2018-10-06T22:46:36.972Z,22.23
2018-10-06T22:49:04.408Z,21.13
2018-10-06T22:51:31.777Z,20.83
2018-10-06T22:53:59.261Z,23.70
2018-10-06T22:56:26.672Z,27.33
2018-10-06T22:58:54.052Z,30.30
2018-10-06T23:01:21.565Z,21.83
2018-10-06T23:03:48.936Z,23.73
2018-10-06T23:06:16.328Z,23.17
2018-10-06T23:08:43.666Z,24.17
2018-10-06T23:11:11.144Z,20.77
2018-10-06T23:13:38.542Z,23.83
2018-10-06T23:16:06.140Z,27.40
2018-10-06T23:18:33.592Z,29.93
2018-10-06T23:21:01.146Z,26.13
2018-10-06T23:23:28.548Z,22.03
2018-10-06T23:25:55.954Z,19.37
2018-10-06T23:28:23.631Z,18.87
2018-10-06T23:30:51.083Z,20.43
2018-10-06T23:33:18.448Z,20.30
2018-10-06T23:35:45.901Z,21.63
2018-10-06T23:38:13.250Z,21.07
2018-10-06T23:40:40.704Z,20.00
2018-10-06T23:43:08.129Z,20.73
2018-10-06T23:45:35.501Z,15.97
2018-10-06T23:48:03.009Z,16.50
2018-10-06T23:50:30.400Z,16.23
2018-10-06T23:52:57.783Z,17.80
2018-10-06T23:55:25.243Z,18.17
2018-10-06T23:57:52.741Z,25.57
